sensor_id;sensor_type;location;lat;lon;timestamp;temperature;humidity
11961;DHT22;6040;49.358;11.140;2023-06-04T00:00:41;12.70;81.40
11961;DHT22;6040;49.358;11.140;2023-06-04T00:03:08;13.80;82.70
11961;DHT22;6040;49.358;11.140;2023-06-04T00:05:35;11.80;82.40
11961;DHT22;6040;49.358;11.140;2023-06-04T00:08:02;12.50;83.40
11961;DHT22;6040;49.358;11.140;2023-06-04T00:10:29;12.40;84.40
11961;DHT22;6040;49.358;11.140;2023-06-04T00:12:57;12.30;84.90
11961;DHT22;6040;49.358;11.140;2023-06-04T00:15:24;12.20;84.90
11961;DHT22;6040;49.358;11.140;2023-06-04T00:17:51;11.90;85.70
11961;DHT22;6040;49.358;11.140;2023-06-04T00:20:18;12.00;86.60
11961;DHT22;6040;49.358;11.140;2023-06-04T00:22:45;11.90;86.40
11961;DHT22;6040;49.358;11.140;2023-06-04T00:25:12;11.90;86.00
11961;DHT22;6040;49.358;11.140;2023-06-04T00:27:39;11.80;86.80
11961;DHT22;6040;49.358;11.140;2023-06-04T00:30:08;11.70;86.90
11961;DHT22;6040;49.358;11.140;2023-06-04T00:32:35;11.60;88.20
11961;DHT22;6040;49.358;11.140;2023-06-04T00:35:02;11.40;88.30
11961;DHT22;6040;49.358;11.140;2023-06-04T00:37:29;11.40;88.90
11961;DHT22;6040;49.358;11.140;2023-06-04T00:39:56;11.30;90.10
11961;DHT22;6040;49.358;11.140;2023-06-04T00:42:23;11.30;89.90
11961;DHT22;6040;49.358;11.140;2023-06-04T00:44:50;11.80;90.20
11961;DHT22;6040;49.358;11.140;2023-06-04T00:47:19;11.30;90.20
11961;DHT22;6040;49.358;11.140;2023-06-04T00:49:47;11.30;90.40
11961;DHT22;6040;49.358;11.140;2023-06-04T00:52:15;12.20;90.50
11961;DHT22;6040;49.358;11.140;2023-06-04T00:54:42;11.20;90.30
11961;DHT22;6040;49.358;11.140;2023-06-04T00:57:09;11.10;90.30
11961;DHT22;6040;49.358;11.140;2023-06-04T00:59:38;12.10;90.70
11961;DHT22;6040;49.358;11.140;2023-06-04T01:02:09;11.10;90.60
11961;DHT22;6040;49.358;11.140;2023-06-04T01:04:44;12.10;91.10
11961;DHT22;6040;49.358;11.140;2023-06-04T01:07:14;12.80;91.30
11961;DHT22;6040;49.358;11.140;2023-06-04T01:09:41;10.90;90.90
11961;DHT22;6040;49.358;11.140;2023-06-04T01:12:09;10.80;91.10
11961;DHT22;6040;49.358;11.140;2023-06-04T01:14:36;10.80;91.10
11961;DHT22;6040;49.358;11.140;2023-06-04T01:17:07;10.70;91.00
11961;DHT22;6040;49.358;11.140;2023-06-04T01:20:05;10.70;91.40
11961;DHT22;6040;49.358;11.140;2023-06-04T01:22:38;10.60;90.60
11961;DHT22;6040;49.358;11.140;2023-06-04T01:25:13;10.60;90.60
11961;DHT22;6040;49.358;11.140;2023-06-04T01:27:49;10.50;90.90
11961;DHT22;6040;49.358;11.140;2023-06-04T01:30:18;10.60;91.40
11961;DHT22;6040;49.358;11.140;2023-06-04T01:32:46;10.40;91.40
11961;DHT22;6040;49.358;11.140;2023-06-04T01:35:15;10.30;91.60
11961;DHT22;6040;49.358;11.140;2023-06-04T01:37:41;10.30;91.00
11961;DHT22;6040;49.358;11.140;2023-06-04T01:40:09;10.20;91.00
11961;DHT22;6040;49.358;11.140;2023-06-04T01:42:36;10.20;91.10
11961;DHT22;6040;49.358;11.140;2023-06-04T01:45:03;10.20;91.10
11961;DHT22;6040;49.358;11.140;2023-06-04T01:47:30;10.20;90.90
11961;DHT22;6040;49.358;11.140;2023-06-04T01:49:57;10.20;90.70
11961;DHT22;6040;49.358;11.140;2023-06-04T01:52:25;10.10;90.40
11961;DHT22;6040;49.358;11.140;2023-06-04T01:54:52;10.10;90.60
11961;DHT22;6040;49.358;11.140;2023-06-04T01:57:19;10.00;90.80
11961;DHT22;6040;49.358;11.140;2023-06-04T01:59:46;10.00;91.20
11961;DHT22;6040;49.358;11.140;2023-06-04T02:02:14;9.90;91.50
11961;DHT22;6040;49.358;11.140;2023-06-04T02:04:41;9.80;91.70
11961;DHT22;6040;49.358;11.140;2023-06-04T02:07:08;10.80;92.20
11961;DHT22;6040;49.358;11.140;2023-06-04T02:09:37;9.70;92.20
11961;DHT22;6040;49.358;11.140;2023-06-04T02:12:04;9.70;92.40
11961;DHT22;6040;49.358;11.140;2023-06-04T02:14:31;9.60;92.40
11961;DHT22;6040;49.358;11.140;2023-06-04T02:16:58;9.60;92.40
11961;DHT22;6040;49.358;11.140;2023-06-04T02:19:25;9.50;92.40
11961;DHT22;6040;49.358;11.140;2023-06-04T02:21:52;9.40;92.80
11961;DHT22;6040;49.358;11.140;2023-06-04T02:24:19;9.30;93.00
11961;DHT22;6040;49.358;11.140;2023-06-04T02:26:47;9.30;93.10
11961;DHT22;6040;49.358;11.140;2023-06-04T02:29:14;9.30;93.10
11961;DHT22;6040;49.358;11.140;2023-06-04T02:31:41;9.10;93.60
11961;DHT22;6040;49.358;11.140;2023-06-04T02:34:08;9.10;93.50
11961;DHT22;6040;49.358;11.140;2023-06-04T02:36:35;9.10;93.80
11961;DHT22;6040;49.358;11.140;2023-06-04T02:39:02;9.00;94.20
11961;DHT22;6040;49.358;11.140;2023-06-04T02:41:28;9.00;94.00
11961;DHT22;6040;49.358;11.140;2023-06-04T02:43:57;8.90;94.20
11961;DHT22;6040;49.358;11.140;2023-06-04T02:46:23;8.90;94.40
11961;DHT22;6040;49.358;11.140;2023-06-04T02:48:50;9.30;94.70
11961;DHT22;6040;49.358;11.140;2023-06-04T02:51:17;8.90;94.50
11961;DHT22;6040;49.358;11.140;2023-06-04T02:53:44;8.90;94.60
11961;DHT22;6040;49.358;11.140;2023-06-04T02:56:11;8.90;94.40
11961;DHT22;6040;49.358;11.140;2023-06-04T02:58:37;8.90;94.70
11961;DHT22;6040;49.358;11.140;2023-06-04T03:01:19;8.80;94.40
11961;DHT22;6040;49.358;11.140;2023-06-04T03:03:46;8.80;94.50
11961;DHT22;6040;49.358;11.140;2023-06-04T03:06:13;8.80;94.40
11961;DHT22;6040;49.358;11.140;2023-06-04T03:08:41;8.70;94.60
11961;DHT22;6040;49.358;11.140;2023-06-04T03:11:07;8.70;94.60
11961;DHT22;6040;49.358;11.140;2023-06-04T03:13:34;8.60;94.70
11961;DHT22;6040;49.358;11.140;2023-06-04T03:16:01;8.60;94.90
11961;DHT22;6040;49.358;11.140;2023-06-04T03:18:30;8.50;95.30
11961;DHT22;6040;49.358;11.140;2023-06-04T03:20:58;8.50;95.40
11961;DHT22;6040;49.358;11.140;2023-06-04T03:23:25;8.30;95.80
11961;DHT22;6040;49.358;11.140;2023-06-04T03:25:52;8.20;96.20
11961;DHT22;6040;49.358;11.140;2023-06-04T03:28:18;8.60;96.30
11961;DHT22;6040;49.358;11.140;2023-06-04T03:30:45;8.50;96.60
11961;DHT22;6040;49.358;11.140;2023-06-04T03:33:12;8.30;96.80
11961;DHT22;6040;49.358;11.140;2023-06-04T03:35:41;10.00;97.20
11961;DHT22;6040;49.358;11.140;2023-06-04T03:38:08;8.10;97.20
11961;DHT22;6040;49.358;11.140;2023-06-04T03:40:35;9.60;97.40
11961;DHT22;6040;49.358;11.140;2023-06-04T03:43:02;10.00;97.40
11961;DHT22;6040;49.358;11.140;2023-06-04T03:45:29;8.30;97.00
11961;DHT22;6040;49.358;11.140;2023-06-04T03:47:56;8.40;97.00
11961;DHT22;6040;49.358;11.140;2023-06-04T03:50:23;8.40;97.10
11961;DHT22;6040;49.358;11.140;2023-06-04T03:52:51;8.40;97.20
11961;DHT22;6040;49.358;11.140;2023-06-04T03:55:18;8.40;97.00
11961;DHT22;6040;49.358;11.140;2023-06-04T03:57:45;9.30;97.00
11961;DHT22;6040;49.358;11.140;2023-06-04T04:00:13;9.90;97.30
11961;DHT22;6040;49.358;11.140;2023-06-04T04:02:41;8.50;96.80
11961;DHT22;6040;49.358;11.140;2023-06-04T04:05:08;8.50;97.00
11961;DHT22;6040;49.358;11.140;2023-06-04T04:07:36;8.50;96.90
11961;DHT22;6040;49.358;11.140;2023-06-04T04:10:05;8.50;96.90
11961;DHT22;6040;49.358;11.140;2023-06-04T04:12:32;8.50;97.20
11961;DHT22;6040;49.358;11.140;2023-06-04T04:14:59;8.50;97.40
11961;DHT22;6040;49.358;11.140;2023-06-04T04:17:26;9.00;97.90
11961;DHT22;6040;49.358;11.140;2023-06-04T04:19:53;8.40;98.00
11961;DHT22;6040;49.358;11.140;2023-06-04T04:22:20;8.40;98.10
11961;DHT22;6040;49.358;11.140;2023-06-04T04:24:47;8.50;98.00
11961;DHT22;6040;49.358;11.140;2023-06-04T04:27:15;8.80;98.90
11961;DHT22;6040;49.358;11.140;2023-06-04T04:29:42;8.40;98.40
11961;DHT22;6040;49.358;11.140;2023-06-04T04:32:13;8.50;98.70
11961;DHT22;6040;49.358;11.140;2023-06-04T04:34:50;8.60;98.70
11961;DHT22;6040;49.358;11.140;2023-06-04T04:37:18;8.70;98.60
11961;DHT22;6040;49.358;11.140;2023-06-04T04:39:46;8.80;98.80
11961;DHT22;6040;49.358;11.140;2023-06-04T04:42:16;8.90;99.00
11961;DHT22;6040;49.358;11.140;2023-06-04T04:44:43;9.50;98.60
11961;DHT22;6040;49.358;11.140;2023-06-04T04:47:12;9.10;98.30
11961;DHT22;6040;49.358;11.140;2023-06-04T04:49:39;9.20;98.30
11961;DHT22;6040;49.358;11.140;2023-06-04T04:52:06;9.30;98.20
11961;DHT22;6040;49.358;11.140;2023-06-04T04:54:33;9.40;98.00
11961;DHT22;6040;49.358;11.140;2023-06-04T04:57:00;9.50;97.50
11961;DHT22;6040;49.358;11.140;2023-06-04T04:59:28;9.60;97.50
11961;DHT22;6040;49.358;11.140;2023-06-04T05:01:55;9.80;97.40
11961;DHT22;6040;49.358;11.140;2023-06-04T05:04:22;10.80;97.40
11961;DHT22;6040;49.358;11.140;2023-06-04T05:06:49;10.20;96.90
11961;DHT22;6040;49.358;11.140;2023-06-04T05:09:15;11.80;98.10
11961;DHT22;6040;49.358;11.140;2023-06-04T05:11:42;10.60;97.90
11961;DHT22;6040;49.358;11.140;2023-06-04T05:14:09;10.90;98.20
11961;DHT22;6040;49.358;11.140;2023-06-04T05:16:37;11.20;97.50
11961;DHT22;6040;49.358;11.140;2023-06-04T05:19:06;11.50;97.30
11961;DHT22;6040;49.358;11.140;2023-06-04T05:21:34;13.30;97.40
11961;DHT22;6040;49.358;11.140;2023-06-04T05:24:02;12.10;96.50
11961;DHT22;6040;49.358;11.140;2023-06-04T05:26:29;12.40;96.20
11961;DHT22;6040;49.358;11.140;2023-06-04T05:28:56;12.70;95.80
11961;DHT22;6040;49.358;11.140;2023-06-04T05:31:23;13.30;95.10
11961;DHT22;6040;49.358;11.140;2023-06-04T05:33:54;14.00;93.80
11961;DHT22;6040;49.358;11.140;2023-06-04T05:36:21;14.60;92.70
11961;DHT22;6040;49.358;11.140;2023-06-04T05:38:48;15.00;91.30
11961;DHT22;6040;49.358;11.140;2023-06-04T05:41:22;15.70;89.70
11961;DHT22;6040;49.358;11.140;2023-06-04T05:43:49;16.70;86.00
11961;DHT22;6040;49.358;11.140;2023-06-04T05:46:16;17.30;80.90
11961;DHT22;6040;49.358;11.140;2023-06-04T05:48:43;17.80;77.20
11961;DHT22;6040;49.358;11.140;2023-06-04T05:51:13;18.20;77.30
11961;DHT22;6040;49.358;11.140;2023-06-04T05:53:40;18.80;74.30
11961;DHT22;6040;49.358;11.140;2023-06-04T05:56:07;19.40;73.40
11961;DHT22;6040;49.358;11.140;2023-06-04T05:58:34;19.80;71.80
11961;DHT22;6040;49.358;11.140;2023-06-04T06:01:01;20.10;71.00
11961;DHT22;6040;49.358;11.140;2023-06-04T06:03:28;20.30;70.70
11961;DHT22;6040;49.358;11.140;2023-06-04T06:05:55;20.50;69.00
11961;DHT22;6040;49.358;11.140;2023-06-04T06:08:25;20.70;70.10
11961;DHT22;6040;49.358;11.140;2023-06-04T06:10:52;21.00;69.00
11961;DHT22;6040;49.358;11.140;2023-06-04T06:13:19;21.20;69.10
11961;DHT22;6040;49.358;11.140;2023-06-04T06:15:46;21.50;69.00
11961;DHT22;6040;49.358;11.140;2023-06-04T06:18:13;21.60;67.40
11961;DHT22;6040;49.358;11.140;2023-06-04T06:20:40;21.50;68.20
11961;DHT22;6040;49.358;11.140;2023-06-04T06:23:07;22.10;67.90
11961;DHT22;6040;49.358;11.140;2023-06-04T06:25:36;22.70;66.50
11961;DHT22;6040;49.358;11.140;2023-06-04T06:28:05;23.20;65.10
11961;DHT22;6040;49.358;11.140;2023-06-04T06:30:32;23.50;64.50
11961;DHT22;6040;49.358;11.140;2023-06-04T06:32:59;23.20;64.60
11961;DHT22;6040;49.358;11.140;2023-06-04T06:35:26;23.20;65.40
11961;DHT22;6040;49.358;11.140;2023-06-04T06:37:52;22.80;65.80
11961;DHT22;6040;49.358;11.140;2023-06-04T06:40:20;22.60;67.50
11961;DHT22;6040;49.358;11.140;2023-06-04T06:42:49;22.50;66.60
11961;DHT22;6040;49.358;11.140;2023-06-04T06:45:17;22.40;67.20
11961;DHT22;6040;49.358;11.140;2023-06-04T06:47:44;22.40;67.20
11961;DHT22;6040;49.358;11.140;2023-06-04T06:50:11;22.80;67.30
11961;DHT22;6040;49.358;11.140;2023-06-04T06:52:38;22.60;65.40
11961;DHT22;6040;49.358;11.140;2023-06-04T06:55:05;22.80;66.00
11961;DHT22;6040;49.358;11.140;2023-06-04T06:57:32;22.90;69.10
11961;DHT22;6040;49.358;11.140;2023-06-04T07:00:01;23.50;68.10
11961;DHT22;6040;49.358;11.140;2023-06-04T07:02:29;23.50;63.80
11961;DHT22;6040;49.358;11.140;2023-06-04T07:04:56;23.60;67.50
11961;DHT22;6040;49.358;11.140;2023-06-04T07:07:23;23.40;64.90
11961;DHT22;6040;49.358;11.140;2023-06-04T07:09:49;23.30;63.50
11961;DHT22;6040;49.358;11.140;2023-06-04T07:12:17;23.20;65.10
11961;DHT22;6040;49.358;11.140;2023-06-04T07:14:44;23.30;63.10
11961;DHT22;6040;49.358;11.140;2023-06-04T07:17:12;23.10;65.60
11961;DHT22;6040;49.358;11.140;2023-06-04T07:19:39;23.10;64.40
11961;DHT22;6040;49.358;11.140;2023-06-04T07:22:06;22.90;66.10
11961;DHT22;6040;49.358;11.140;2023-06-04T07:24:32;23.70;66.70
11961;DHT22;6040;49.358;11.140;2023-06-04T07:26:59;23.80;67.00
11961;DHT22;6040;49.358;11.140;2023-06-04T07:29:26;24.80;64.40
11961;DHT22;6040;49.358;11.140;2023-06-04T07:31:53;25.20;63.20
11961;DHT22;6040;49.358;11.140;2023-06-04T07:34:21;25.80;60.90
11961;DHT22;6040;49.358;11.140;2023-06-04T07:36:48;26.10;61.70
11961;DHT22;6040;49.358;11.140;2023-06-04T07:39:15;26.30;61.20
11961;DHT22;6040;49.358;11.140;2023-06-04T07:41:42;26.00;58.70
11961;DHT22;6040;49.358;11.140;2023-06-04T07:44:09;26.40;60.90
11961;DHT22;6040;49.358;11.140;2023-06-04T07:46:36;26.80;59.20
11961;DHT22;6040;49.358;11.140;2023-06-04T07:49:03;27.20;60.30
11961;DHT22;6040;49.358;11.140;2023-06-04T07:51:31;27.00;58.50
11961;DHT22;6040;49.358;11.140;2023-06-04T07:53:58;27.50;58.70
11961;DHT22;6040;49.358;11.140;2023-06-04T07:56:25;27.40;59.20
11961;DHT22;6040;49.358;11.140;2023-06-04T07:58:52;27.20;59.10
11961;DHT22;6040;49.358;11.140;2023-06-04T08:01:19;26.30;56.80
11961;DHT22;6040;49.358;11.140;2023-06-04T08:03:47;26.20;58.00
11961;DHT22;6040;49.358;11.140;2023-06-04T08:06:13;26.20;58.20
11961;DHT22;6040;49.358;11.140;2023-06-04T08:08:43;26.40;59.30
11961;DHT22;6040;49.358;11.140;2023-06-04T08:11:11;26.10;58.20
11961;DHT22;6040;49.358;11.140;2023-06-04T08:13:39;25.70;57.70
11961;DHT22;6040;49.358;11.140;2023-06-04T08:16:06;25.30;58.00
11961;DHT22;6040;49.358;11.140;2023-06-04T08:18:32;25.30;57.10
11961;DHT22;6040;49.358;11.140;2023-06-04T08:20:59;25.20;59.20
11961;DHT22;6040;49.358;11.140;2023-06-04T08:23:26;25.40;57.10
11961;DHT22;6040;49.358;11.140;2023-06-04T08:25:54;25.50;58.10
11961;DHT22;6040;49.358;11.140;2023-06-04T08:28:21;25.60;59.40
11961;DHT22;6040;49.358;11.140;2023-06-04T08:30:48;26.60;58.30
11961;DHT22;6040;49.358;11.140;2023-06-04T08:33:15;27.10;57.80
11961;DHT22;6040;49.358;11.140;2023-06-04T08:35:42;27.50;57.90
11961;DHT22;6040;49.358;11.140;2023-06-04T08:38:09;27.60;57.20
11961;DHT22;6040;49.358;11.140;2023-06-04T08:40:36;27.50;52.40
11961;DHT22;6040;49.358;11.140;2023-06-04T08:43:04;27.40;55.40
11961;DHT22;6040;49.358;11.140;2023-06-04T08:48:41;26.50;55.10
11961;DHT22;6040;49.358;11.140;2023-06-04T08:51:08;26.40;54.90
11961;DHT22;6040;49.358;11.140;2023-06-04T08:53:37;25.70;55.30
11961;DHT22;6040;49.358;11.140;2023-06-04T08:56:04;25.40;57.20
11961;DHT22;6040;49.358;11.140;2023-06-04T08:58:36;25.80;58.20
11961;DHT22;6040;49.358;11.140;2023-06-04T09:01:04;25.90;55.70
11961;DHT22;6040;49.358;11.140;2023-06-04T09:03:31;25.60;55.10
11961;DHT22;6040;49.358;11.140;2023-06-04T09:05:59;25.50;57.20
11961;DHT22;6040;49.358;11.140;2023-06-04T09:08:29;25.60;56.60
11961;DHT22;6040;49.358;11.140;2023-06-04T09:10:57;26.00;57.00
11961;DHT22;6040;49.358;11.140;2023-06-04T09:13:28;26.20;55.80
11961;DHT22;6040;49.358;11.140;2023-06-04T09:16:02;26.20;55.00
11961;DHT22;6040;49.358;11.140;2023-06-04T09:18:29;26.30;56.30
11961;DHT22;6040;49.358;11.140;2023-06-04T09:21:03;26.50;55.80
11961;DHT22;6040;49.358;11.140;2023-06-04T09:23:31;26.60;55.70
11961;DHT22;6040;49.358;11.140;2023-06-04T09:26:06;26.90;56.40
11961;DHT22;6040;49.358;11.140;2023-06-04T09:28:33;27.50;56.00
11961;DHT22;6040;49.358;11.140;2023-06-04T09:31:02;27.90;54.60
11961;DHT22;6040;49.358;11.140;2023-06-04T09:33:29;28.00;54.30
11961;DHT22;6040;49.358;11.140;2023-06-04T09:35:56;28.00;54.40
11961;DHT22;6040;49.358;11.140;2023-06-04T09:38:23;28.20;54.20
11961;DHT22;6040;49.358;11.140;2023-06-04T09:40:50;28.30;54.40
11961;DHT22;6040;49.358;11.140;2023-06-04T09:43:23;28.80;54.30
11961;DHT22;6040;49.358;11.140;2023-06-04T09:45:50;28.00;51.30
11961;DHT22;6040;49.358;11.140;2023-06-04T09:48:22;28.10;54.60
11961;DHT22;6040;49.358;11.140;2023-06-04T09:50:48;28.60;54.10
11961;DHT22;6040;49.358;11.140;2023-06-04T09:53:17;28.70;52.20
11961;DHT22;6040;49.358;11.140;2023-06-04T09:55:56;28.60;52.30
11961;DHT22;6040;49.358;11.140;2023-06-04T09:58:24;29.00;52.40
11961;DHT22;6040;49.358;11.140;2023-06-04T10:00:53;29.20;52.00
11961;DHT22;6040;49.358;11.140;2023-06-04T10:03:22;29.40;51.70
11961;DHT22;6040;49.358;11.140;2023-06-04T10:05:51;29.50;53.50
11961;DHT22;6040;49.358;11.140;2023-06-04T10:08:21;29.70;53.40
11961;DHT22;6040;49.358;11.140;2023-06-04T10:10:50;29.80;52.10
11961;DHT22;6040;49.358;11.140;2023-06-04T10:13:18;29.80;52.00
11961;DHT22;6040;49.358;11.140;2023-06-04T10:15:46;29.80;51.70
11961;DHT22;6040;49.358;11.140;2023-06-04T10:18:13;29.80;52.20
11961;DHT22;6040;49.358;11.140;2023-06-04T10:20:42;29.70;52.80
11961;DHT22;6040;49.358;11.140;2023-06-04T10:23:10;29.60;52.90
11961;DHT22;6040;49.358;11.140;2023-06-04T10:25:37;29.60;52.50
11961;DHT22;6040;49.358;11.140;2023-06-04T10:28:04;29.40;51.10
11961;DHT22;6040;49.358;11.140;2023-06-04T10:30:31;29.30;53.80
11961;DHT22;6040;49.358;11.140;2023-06-04T10:32:58;29.30;54.90
11961;DHT22;6040;49.358;11.140;2023-06-04T10:35:31;29.60;48.30
11961;DHT22;6040;49.358;11.140;2023-06-04T10:38:10;29.10;49.90
11961;DHT22;6040;49.358;11.140;2023-06-04T10:40:38;28.50;49.50
11961;DHT22;6040;49.358;11.140;2023-06-04T10:43:06;28.50;51.80
11961;DHT22;6040;49.358;11.140;2023-06-04T10:45:33;29.00;51.20
11961;DHT22;6040;49.358;11.140;2023-06-04T10:48:00;29.20;51.70
11961;DHT22;6040;49.358;11.140;2023-06-04T10:50:27;29.50;50.60
11961;DHT22;6040;49.358;11.140;2023-06-04T10:52:55;29.30;48.60
11961;DHT22;6040;49.358;11.140;2023-06-04T10:55:24;29.20;51.50
11961;DHT22;6040;49.358;11.140;2023-06-04T10:57:52;28.90;50.70
11961;DHT22;6040;49.358;11.140;2023-06-04T11:00:19;29.20;52.00
11961;DHT22;6040;49.358;11.140;2023-06-04T11:05:18;29.70;49.60
11961;DHT22;6040;49.358;11.140;2023-06-04T11:07:47;30.00;48.30
11961;DHT22;6040;49.358;11.140;2023-06-04T11:10:15;29.70;51.30
11961;DHT22;6040;49.358;11.140;2023-06-04T11:12:44;29.70;50.10
11961;DHT22;6040;49.358;11.140;2023-06-04T11:15:11;29.50;50.50
11961;DHT22;6040;49.358;11.140;2023-06-04T11:17:38;29.70;51.30
11961;DHT22;6040;49.358;11.140;2023-06-04T11:20:16;29.80;50.60
11961;DHT22;6040;49.358;11.140;2023-06-04T11:22:50;29.70;50.80
11961;DHT22;6040;49.358;11.140;2023-06-04T11:25:17;29.40;49.60
11961;DHT22;6040;49.358;11.140;2023-06-04T11:27:46;29.20;51.30
11961;DHT22;6040;49.358;11.140;2023-06-04T11:30:14;29.50;50.50
11961;DHT22;6040;49.358;11.140;2023-06-04T11:32:41;29.40;50.50
11961;DHT22;6040;49.358;11.140;2023-06-04T11:35:08;29.30;50.70
11961;DHT22;6040;49.358;11.140;2023-06-04T11:37:37;29.50;52.70
11961;DHT22;6040;49.358;11.140;2023-06-04T11:40:15;29.50;49.90
11961;DHT22;6040;49.358;11.140;2023-06-04T11:42:42;29.40;50.00
11961;DHT22;6040;49.358;11.140;2023-06-04T11:45:12;29.50;49.70
11961;DHT22;6040;49.358;11.140;2023-06-04T11:47:40;29.50;48.30
11961;DHT22;6040;49.358;11.140;2023-06-04T11:50:07;29.00;48.70
11961;DHT22;6040;49.358;11.140;2023-06-04T11:52:34;29.00;51.60
11961;DHT22;6040;49.358;11.140;2023-06-04T11:55:03;29.40;49.30
11961;DHT22;6040;49.358;11.140;2023-06-04T11:57:30;29.50;50.20
11961;DHT22;6040;49.358;11.140;2023-06-04T11:59:57;29.80;48.80
11961;DHT22;6040;49.358;11.140;2023-06-04T12:02:26;29.80;50.30
11961;DHT22;6040;49.358;11.140;2023-06-04T12:04:52;29.70;49.90
11961;DHT22;6040;49.358;11.140;2023-06-04T12:07:20;29.70;47.90
11961;DHT22;6040;49.358;11.140;2023-06-04T12:09:50;29.30;48.70
11961;DHT22;6040;49.358;11.140;2023-06-04T12:12:22;29.20;50.40
11961;DHT22;6040;49.358;11.140;2023-06-04T12:14:56;29.30;50.40
11961;DHT22;6040;49.358;11.140;2023-06-04T12:17:23;29.20;48.50
11961;DHT22;6040;49.358;11.140;2023-06-04T12:19:52;28.60;48.30
11961;DHT22;6040;49.358;11.140;2023-06-04T12:22:19;28.80;49.90
11961;DHT22;6040;49.358;11.140;2023-06-04T12:24:47;28.80;50.90
11961;DHT22;6040;49.358;11.140;2023-06-04T12:27:14;29.00;51.00
11961;DHT22;6040;49.358;11.140;2023-06-04T12:29:41;28.70;47.10
11961;DHT22;6040;49.358;11.140;2023-06-04T12:32:10;28.50;50.60
11961;DHT22;6040;49.358;11.140;2023-06-04T12:34:37;28.40;50.30
11961;DHT22;6040;49.358;11.140;2023-06-04T12:37:05;28.50;49.10
11961;DHT22;6040;49.358;11.140;2023-06-04T12:39:33;28.30;49.20
11961;DHT22;6040;49.358;11.140;2023-06-04T12:42:00;28.40;50.40
11961;DHT22;6040;49.358;11.140;2023-06-04T12:44:27;28.50;49.10
11961;DHT22;6040;49.358;11.140;2023-06-04T12:46:54;28.10;47.10
11961;DHT22;6040;49.358;11.140;2023-06-04T12:49:21;27.80;51.40
11961;DHT22;6040;49.358;11.140;2023-06-04T12:51:47;27.90;50.30
11961;DHT22;6040;49.358;11.140;2023-06-04T12:54:15;28.10;49.20
11961;DHT22;6040;49.358;11.140;2023-06-04T12:56:43;27.90;48.60
11961;DHT22;6040;49.358;11.140;2023-06-04T12:59:10;27.30;48.70
11961;DHT22;6040;49.358;11.140;2023-06-04T13:01:37;27.20;48.90
11961;DHT22;6040;49.358;11.140;2023-06-04T13:04:04;27.20;49.10
11961;DHT22;6040;49.358;11.140;2023-06-04T13:06:31;27.20;47.60
11961;DHT22;6040;49.358;11.140;2023-06-04T13:08:58;27.30;50.20
11961;DHT22;6040;49.358;11.140;2023-06-04T13:11:26;27.30;50.70
11961;DHT22;6040;49.358;11.140;2023-06-04T13:13:53;27.20;48.70
11961;DHT22;6040;49.358;11.140;2023-06-04T13:16:19;27.50;50.30
11961;DHT22;6040;49.358;11.140;2023-06-04T13:18:46;27.40;48.50
11961;DHT22;6040;49.358;11.140;2023-06-04T13:21:13;27.30;49.80
11961;DHT22;6040;49.358;11.140;2023-06-04T13:23:40;27.10;48.60
11961;DHT22;6040;49.358;11.140;2023-06-04T13:26:07;27.20;50.00
11961;DHT22;6040;49.358;11.140;2023-06-04T13:28:35;27.10;50.20
11961;DHT22;6040;49.358;11.140;2023-06-04T13:31:02;27.30;48.80
11961;DHT22;6040;49.358;11.140;2023-06-04T13:33:29;27.10;49.20
11961;DHT22;6040;49.358;11.140;2023-06-04T13:35:56;26.70;50.80
11961;DHT22;6040;49.358;11.140;2023-06-04T13:38:22;26.70;50.00
11961;DHT22;6040;49.358;11.140;2023-06-04T13:40:49;26.50;50.60
11961;DHT22;6040;49.358;11.140;2023-06-04T13:43:16;27.10;50.00
11961;DHT22;6040;49.358;11.140;2023-06-04T13:45:44;26.10;49.70
11961;DHT22;6040;49.358;11.140;2023-06-04T13:48:11;26.10;50.00
11961;DHT22;6040;49.358;11.140;2023-06-04T13:50:38;26.20;50.80
11961;DHT22;6040;49.358;11.140;2023-06-04T13:53:05;26.30;49.80
11961;DHT22;6040;49.358;11.140;2023-06-04T13:55:32;26.40;50.50
11961;DHT22;6040;49.358;11.140;2023-06-04T13:57:59;26.30;49.90
11961;DHT22;6040;49.358;11.140;2023-06-04T14:00:26;26.30;49.90
11961;DHT22;6040;49.358;11.140;2023-06-04T14:02:56;26.30;49.80
11961;DHT22;6040;49.358;11.140;2023-06-04T14:05:25;26.30;49.80
11961;DHT22;6040;49.358;11.140;2023-06-04T14:07:53;26.10;50.20
11961;DHT22;6040;49.358;11.140;2023-06-04T14:10:19;26.00;51.00
11961;DHT22;6040;49.358;11.140;2023-06-04T14:12:46;26.20;51.40
11961;DHT22;6040;49.358;11.140;2023-06-04T14:15:13;26.30;50.60
11961;DHT22;6040;49.358;11.140;2023-06-04T14:17:40;26.40;52.00
11961;DHT22;6040;49.358;11.140;2023-06-04T14:20:08;26.60;52.30
11961;DHT22;6040;49.358;11.140;2023-06-04T14:22:36;26.80;49.40
11961;DHT22;6040;49.358;11.140;2023-06-04T14:25:03;26.30;50.30
11961;DHT22;6040;49.358;11.140;2023-06-04T14:27:31;26.40;51.40
11961;DHT22;6040;49.358;11.140;2023-06-04T14:29:58;26.50;51.20
11961;DHT22;6040;49.358;11.140;2023-06-04T14:32:25;26.40;49.30
11961;DHT22;6040;49.358;11.140;2023-06-04T14:34:52;26.30;51.00
11961;DHT22;6040;49.358;11.140;2023-06-04T14:37:20;26.00;50.00
11961;DHT22;6040;49.358;11.140;2023-06-04T14:39:47;26.00;50.00
11961;DHT22;6040;49.358;11.140;2023-06-04T14:42:14;26.10;51.60
11961;DHT22;6040;49.358;11.140;2023-06-04T14:44:41;26.10;50.40
11961;DHT22;6040;49.358;11.140;2023-06-04T14:47:08;26.20;51.00
11961;DHT22;6040;49.358;11.140;2023-06-04T14:49:35;26.20;49.30
11961;DHT22;6040;49.358;11.140;2023-06-04T14:52:03;26.50;50.00
11961;DHT22;6040;49.358;11.140;2023-06-04T14:54:31;26.10;48.60
11961;DHT22;6040;49.358;11.140;2023-06-04T14:56:58;26.00;50.70
11961;DHT22;6040;49.358;11.140;2023-06-04T14:59:25;26.10;50.40
11961;DHT22;6040;49.358;11.140;2023-06-04T15:01:53;25.90;49.30
11961;DHT22;6040;49.358;11.140;2023-06-04T15:04:20;23.50;49.50
11961;DHT22;6040;49.358;11.140;2023-06-04T15:06:48;25.50;50.20
11961;DHT22;6040;49.358;11.140;2023-06-04T15:09:15;25.60;50.40
11961;DHT22;6040;49.358;11.140;2023-06-04T15:11:43;25.70;50.30
11961;DHT22;6040;49.358;11.140;2023-06-04T15:14:10;25.90;50.30
11961;DHT22;6040;49.358;11.140;2023-06-04T15:16:37;26.10;50.50
11961;DHT22;6040;49.358;11.140;2023-06-04T15:19:03;26.10;51.00
11961;DHT22;6040;49.358;11.140;2023-06-04T15:21:30;26.20;50.60
11961;DHT22;6040;49.358;11.140;2023-06-04T15:23:57;26.30;50.80
11961;DHT22;6040;49.358;11.140;2023-06-04T15:26:24;26.00;50.40
11961;DHT22;6040;49.358;11.140;2023-06-04T15:28:53;26.00;50.30
11961;DHT22;6040;49.358;11.140;2023-06-04T15:31:21;25.90;50.60
11961;DHT22;6040;49.358;11.140;2023-06-04T15:33:48;25.90;51.20
11961;DHT22;6040;49.358;11.140;2023-06-04T15:36:16;26.00;52.40
11961;DHT22;6040;49.358;11.140;2023-06-04T15:38:42;26.10;51.50
11961;DHT22;6040;49.358;11.140;2023-06-04T15:41:09;26.10;50.50